KBZ weather

Kaikoura Airport
Canterbury Region, New Zealand

Public forecast

Using degrees Celsius for public forecast. Weather courtesy of forecast.io.

METAR (pilot weather report)

Closest report is Christchurch International Airport, 79.4 nm (147.1 km) SW. Retrieved 2019/04/23 00:30 UTC (56 seconds ago):

NZCH 230030Z AUTO 07016KT 9999 NCD 16/11 Q1021 NOSIG

TAF (pilot weather forecast)

Forecast is more than 12 hours old.

Closest forecast is Christchurch International Airport, 79.4 nm (147.1 km) SW. Retrieved 2019/04/22 00:26 UTC (1 day ago):

TAF NZCH 222306Z 2300/2400 06015KT 9999 FEW012 BECMG 2306/2308 VRB02KT BKN012 BECMG 2310/2312 BKN007 BECMG 2313/2315 BKN004 PROB30 2315/2319 0400 FG BECMG 2319/2321 BKN012